sensor_id;sensor_type;location;lat;lon;timestamp;P1;durP1;ratioP1;P2;durP2;ratioP2
20725;SDS011;10524;48.132;8.518;2024-01-07T00:01:35;11.65;;;7.00;;
20725;SDS011;10524;48.132;8.518;2024-01-07T00:04:01;11.73;;;7.25;;
20725;SDS011;10524;48.132;8.518;2024-01-07T00:06:27;13.98;;;8.02;;
20725;SDS011;10524;48.132;8.518;2024-01-07T00:08:52;12.73;;;7.78;;
20725;SDS011;10524;48.132;8.518;2024-01-07T00:11:18;12.43;;;7.57;;
20725;SDS011;10524;48.132;8.518;2024-01-07T00:13:44;13.43;;;7.80;;
20725;SDS011;10524;48.132;8.518;2024-01-07T00:16:11;14.50;;;8.25;;
20725;SDS011;10524;48.132;8.518;2024-01-07T00:18:36;12.95;;;8.10;;
20725;SDS011;10524;48.132;8.518;2024-01-07T00:21:02;13.80;;;7.90;;
20725;SDS011;10524;48.132;8.518;2024-01-07T00:23:28;12.75;;;7.50;;
20725;SDS011;10524;48.132;8.518;2024-01-07T00:25:54;12.90;;;7.72;;
20725;SDS011;10524;48.132;8.518;2024-01-07T00:28:20;13.07;;;7.90;;
20725;SDS011;10524;48.132;8.518;2024-01-07T00:30:46;14.15;;;7.53;;
20725;SDS011;10524;48.132;8.518;2024-01-07T00:33:11;13.40;;;8.07;;
20725;SDS011;10524;48.132;8.518;2024-01-07T00:35:37;11.65;;;7.35;;
20725;SDS011;10524;48.132;8.518;2024-01-07T00:38:03;14.30;;;8.02;;
20725;SDS011;10524;48.132;8.518;2024-01-07T00:40:29;15.45;;;8.30;;
20725;SDS011;10524;48.132;8.518;2024-01-07T00:42:54;15.02;;;8.32;;
20725;SDS011;10524;48.132;8.518;2024-01-07T00:45:20;14.70;;;8.40;;
20725;SDS011;10524;48.132;8.518;2024-01-07T00:47:47;16.00;;;9.18;;
20725;SDS011;10524;48.132;8.518;2024-01-07T00:50:12;16.30;;;8.48;;
20725;SDS011;10524;48.132;8.518;2024-01-07T00:52:38;16.38;;;9.07;;
20725;SDS011;10524;48.132;8.518;2024-01-07T00:55:06;15.10;;;8.80;;
20725;SDS011;10524;48.132;8.518;2024-01-07T00:57:32;16.77;;;9.32;;
20725;SDS011;10524;48.132;8.518;2024-01-07T00:59:58;16.58;;;9.02;;
20725;SDS011;10524;48.132;8.518;2024-01-07T01:02:25;19.25;;;10.30;;
20725;SDS011;10524;48.132;8.518;2024-01-07T01:04:51;17.48;;;10.15;;
20725;SDS011;10524;48.132;8.518;2024-01-07T01:07:16;18.30;;;10.00;;
20725;SDS011;10524;48.132;8.518;2024-01-07T01:09:42;20.27;;;10.15;;
20725;SDS011;10524;48.132;8.518;2024-01-07T01:12:08;19.85;;;10.95;;
20725;SDS011;10524;48.132;8.518;2024-01-07T01:14:33;20.73;;;10.77;;
20725;SDS011;10524;48.132;8.518;2024-01-07T01:16:59;20.80;;;11.10;;
20725;SDS011;10524;48.132;8.518;2024-01-07T01:19:25;20.20;;;11.18;;
20725;SDS011;10524;48.132;8.518;2024-01-07T01:21:51;19.15;;;10.90;;
20725;SDS011;10524;48.132;8.518;2024-01-07T01:24:16;19.73;;;10.75;;
20725;SDS011;10524;48.132;8.518;2024-01-07T01:26:42;19.83;;;10.48;;
20725;SDS011;10524;48.132;8.518;2024-01-07T01:29:08;18.88;;;10.30;;
20725;SDS011;10524;48.132;8.518;2024-01-07T01:31:33;18.52;;;10.35;;
20725;SDS011;10524;48.132;8.518;2024-01-07T01:33:59;20.55;;;10.77;;
20725;SDS011;10524;48.132;8.518;2024-01-07T01:36:25;18.38;;;10.40;;
20725;SDS011;10524;48.132;8.518;2024-01-07T01:38:51;20.00;;;10.73;;
20725;SDS011;10524;48.132;8.518;2024-01-07T01:41:17;20.98;;;11.43;;
20725;SDS011;10524;48.132;8.518;2024-01-07T01:43:43;22.30;;;11.07;;
20725;SDS011;10524;48.132;8.518;2024-01-07T01:46:08;21.55;;;10.90;;
20725;SDS011;10524;48.132;8.518;2024-01-07T01:48:35;22.95;;;11.52;;
20725;SDS011;10524;48.132;8.518;2024-01-07T01:51:02;22.42;;;11.48;;
20725;SDS011;10524;48.132;8.518;2024-01-07T01:53:28;23.13;;;12.23;;
20725;SDS011;10524;48.132;8.518;2024-01-07T01:55:57;20.27;;;11.43;;
20725;SDS011;10524;48.132;8.518;2024-01-07T01:58:24;22.48;;;11.98;;
20725;SDS011;10524;48.132;8.518;2024-01-07T02:00:50;22.67;;;12.05;;
20725;SDS011;10524;48.132;8.518;2024-01-07T02:03:17;23.13;;;12.55;;
20725;SDS011;10524;48.132;8.518;2024-01-07T02:05:43;23.27;;;12.75;;
20725;SDS011;10524;48.132;8.518;2024-01-07T02:08:10;24.90;;;13.05;;
20725;SDS011;10524;48.132;8.518;2024-01-07T02:10:36;23.83;;;12.60;;
20725;SDS011;10524;48.132;8.518;2024-01-07T02:13:03;23.40;;;12.20;;
20725;SDS011;10524;48.132;8.518;2024-01-07T02:15:29;21.27;;;11.95;;
20725;SDS011;10524;48.132;8.518;2024-01-07T02:17:55;22.75;;;11.98;;
20725;SDS011;10524;48.132;8.518;2024-01-07T02:20:21;21.88;;;11.60;;
20725;SDS011;10524;48.132;8.518;2024-01-07T02:22:48;21.95;;;11.90;;
20725;SDS011;10524;48.132;8.518;2024-01-07T02:25:13;20.13;;;11.52;;
20725;SDS011;10524;48.132;8.518;2024-01-07T02:27:39;21.60;;;11.18;;
20725;SDS011;10524;48.132;8.518;2024-01-07T02:30:06;18.95;;;11.40;;
20725;SDS011;10524;48.132;8.518;2024-01-07T02:32:32;20.63;;;11.27;;
20725;SDS011;10524;48.132;8.518;2024-01-07T02:35:00;22.05;;;12.27;;
20725;SDS011;10524;48.132;8.518;2024-01-07T02:37:26;23.02;;;12.70;;
20725;SDS011;10524;48.132;8.518;2024-01-07T02:39:52;20.75;;;11.70;;
20725;SDS011;10524;48.132;8.518;2024-01-07T02:42:18;22.85;;;12.32;;
20725;SDS011;10524;48.132;8.518;2024-01-07T02:44:43;22.10;;;12.48;;
20725;SDS011;10524;48.132;8.518;2024-01-07T02:47:09;22.55;;;12.48;;
20725;SDS011;10524;48.132;8.518;2024-01-07T02:49:35;25.10;;;13.32;;
20725;SDS011;10524;48.132;8.518;2024-01-07T02:52:01;21.48;;;11.88;;
20725;SDS011;10524;48.132;8.518;2024-01-07T02:54:26;20.58;;;11.32;;
20725;SDS011;10524;48.132;8.518;2024-01-07T02:56:52;20.73;;;12.27;;
20725;SDS011;10524;48.132;8.518;2024-01-07T02:59:18;19.92;;;11.27;;
20725;SDS011;10524;48.132;8.518;2024-01-07T03:01:44;20.52;;;11.52;;
20725;SDS011;10524;48.132;8.518;2024-01-07T03:04:10;21.20;;;12.00;;
20725;SDS011;10524;48.132;8.518;2024-01-07T03:06:38;22.33;;;12.55;;
20725;SDS011;10524;48.132;8.518;2024-01-07T03:09:03;21.52;;;12.40;;
20725;SDS011;10524;48.132;8.518;2024-01-07T03:11:29;21.73;;;12.38;;
20725;SDS011;10524;48.132;8.518;2024-01-07T03:13:55;25.27;;;12.35;;
20725;SDS011;10524;48.132;8.518;2024-01-07T03:16:21;23.08;;;12.00;;
20725;SDS011;10524;48.132;8.518;2024-01-07T03:18:48;25.50;;;12.60;;
20725;SDS011;10524;48.132;8.518;2024-01-07T03:21:21;22.48;;;12.57;;
20725;SDS011;10524;48.132;8.518;2024-01-07T03:23:48;23.85;;;13.10;;
20725;SDS011;10524;48.132;8.518;2024-01-07T03:26:15;22.27;;;12.70;;
20725;SDS011;10524;48.132;8.518;2024-01-07T03:28:42;25.23;;;12.85;;
20725;SDS011;10524;48.132;8.518;2024-01-07T03:31:08;22.92;;;12.68;;
20725;SDS011;10524;48.132;8.518;2024-01-07T03:33:39;24.25;;;12.95;;
20725;SDS011;10524;48.132;8.518;2024-01-07T03:36:09;23.10;;;12.65;;
20725;SDS011;10524;48.132;8.518;2024-01-07T03:38:39;26.10;;;13.27;;
20725;SDS011;10524;48.132;8.518;2024-01-07T03:41:05;28.70;;;14.30;;
20725;SDS011;10524;48.132;8.518;2024-01-07T03:43:32;26.77;;;13.90;;
20725;SDS011;10524;48.132;8.518;2024-01-07T03:45:58;26.40;;;13.80;;
20725;SDS011;10524;48.132;8.518;2024-01-07T03:48:24;27.25;;;13.98;;
20725;SDS011;10524;48.132;8.518;2024-01-07T03:50:50;26.70;;;14.15;;
20725;SDS011;10524;48.132;8.518;2024-01-07T03:53:16;21.88;;;12.25;;
20725;SDS011;10524;48.132;8.518;2024-01-07T03:55:42;23.00;;;12.43;;
20725;SDS011;10524;48.132;8.518;2024-01-07T03:58:08;25.73;;;12.40;;
20725;SDS011;10524;48.132;8.518;2024-01-07T04:00:34;23.85;;;12.40;;
20725;SDS011;10524;48.132;8.518;2024-01-07T04:03:01;25.48;;;12.95;;
20725;SDS011;10524;48.132;8.518;2024-01-07T04:05:27;23.45;;;12.65;;
20725;SDS011;10524;48.132;8.518;2024-01-07T04:07:54;24.23;;;13.15;;
20725;SDS011;10524;48.132;8.518;2024-01-07T04:10:20;23.63;;;12.98;;
20725;SDS011;10524;48.132;8.518;2024-01-07T04:12:46;26.58;;;13.20;;
20725;SDS011;10524;48.132;8.518;2024-01-07T04:15:12;23.40;;;12.82;;
20725;SDS011;10524;48.132;8.518;2024-01-07T04:17:38;22.27;;;12.68;;
20725;SDS011;10524;48.132;8.518;2024-01-07T04:20:04;21.33;;;11.45;;
20725;SDS011;10524;48.132;8.518;2024-01-07T04:22:31;22.52;;;11.73;;
20725;SDS011;10524;48.132;8.518;2024-01-07T04:24:57;22.92;;;12.48;;
20725;SDS011;10524;48.132;8.518;2024-01-07T04:27:22;21.55;;;11.38;;
20725;SDS011;10524;48.132;8.518;2024-01-07T04:29:50;20.70;;;11.43;;
20725;SDS011;10524;48.132;8.518;2024-01-07T04:32:15;22.70;;;12.25;;
20725;SDS011;10524;48.132;8.518;2024-01-07T04:34:41;20.77;;;11.43;;
20725;SDS011;10524;48.132;8.518;2024-01-07T04:37:07;23.20;;;12.52;;
20725;SDS011;10524;48.132;8.518;2024-01-07T04:39:33;19.08;;;10.90;;
20725;SDS011;10524;48.132;8.518;2024-01-07T04:41:58;23.25;;;11.82;;
20725;SDS011;10524;48.132;8.518;2024-01-07T04:44:24;20.88;;;11.68;;
20725;SDS011;10524;48.132;8.518;2024-01-07T04:46:50;23.42;;;12.48;;
20725;SDS011;10524;48.132;8.518;2024-01-07T04:49:15;20.40;;;11.52;;
20725;SDS011;10524;48.132;8.518;2024-01-07T04:51:41;19.02;;;10.98;;
20725;SDS011;10524;48.132;8.518;2024-01-07T04:54:07;19.45;;;11.00;;
20725;SDS011;10524;48.132;8.518;2024-01-07T04:56:33;19.73;;;11.07;;
20725;SDS011;10524;48.132;8.518;2024-01-07T04:58:59;20.98;;;11.68;;
20725;SDS011;10524;48.132;8.518;2024-01-07T05:01:24;18.60;;;10.32;;
20725;SDS011;10524;48.132;8.518;2024-01-07T05:03:50;21.67;;;11.30;;
20725;SDS011;10524;48.132;8.518;2024-01-07T05:06:16;18.25;;;9.95;;
20725;SDS011;10524;48.132;8.518;2024-01-07T05:08:41;24.73;;;12.02;;
20725;SDS011;10524;48.132;8.518;2024-01-07T05:11:07;19.40;;;9.93;;
20725;SDS011;10524;48.132;8.518;2024-01-07T05:13:33;16.70;;;9.43;;
20725;SDS011;10524;48.132;8.518;2024-01-07T05:16:00;15.38;;;9.40;;
20725;SDS011;10524;48.132;8.518;2024-01-07T05:18:26;15.10;;;8.77;;
20725;SDS011;10524;48.132;8.518;2024-01-07T05:20:52;13.75;;;7.60;;
20725;SDS011;10524;48.132;8.518;2024-01-07T05:23:18;13.95;;;7.85;;
20725;SDS011;10524;48.132;8.518;2024-01-07T05:25:45;15.23;;;8.23;;
20725;SDS011;10524;48.132;8.518;2024-01-07T05:28:11;13.32;;;7.38;;
20725;SDS011;10524;48.132;8.518;2024-01-07T05:30:38;15.15;;;8.55;;
20725;SDS011;10524;48.132;8.518;2024-01-07T05:33:04;12.48;;;7.90;;
20725;SDS011;10524;48.132;8.518;2024-01-07T05:35:30;12.32;;;7.68;;
20725;SDS011;10524;48.132;8.518;2024-01-07T05:37:56;13.73;;;7.78;;
20725;SDS011;10524;48.132;8.518;2024-01-07T05:40:22;13.63;;;7.45;;
20725;SDS011;10524;48.132;8.518;2024-01-07T05:42:48;13.05;;;8.23;;
20725;SDS011;10524;48.132;8.518;2024-01-07T05:45:14;13.98;;;8.10;;
20725;SDS011;10524;48.132;8.518;2024-01-07T05:47:39;15.15;;;7.93;;
20725;SDS011;10524;48.132;8.518;2024-01-07T05:50:08;13.52;;;8.00;;
20725;SDS011;10524;48.132;8.518;2024-01-07T05:52:34;16.42;;;8.60;;
20725;SDS011;10524;48.132;8.518;2024-01-07T05:55:00;14.55;;;8.38;;
20725;SDS011;10524;48.132;8.518;2024-01-07T05:57:26;16.92;;;9.20;;
20725;SDS011;10524;48.132;8.518;2024-01-07T05:59:51;15.73;;;9.27;;
20725;SDS011;10524;48.132;8.518;2024-01-07T06:02:17;16.38;;;8.90;;
20725;SDS011;10524;48.132;8.518;2024-01-07T06:04:43;18.17;;;9.43;;
20725;SDS011;10524;48.132;8.518;2024-01-07T06:07:09;16.85;;;8.52;;
20725;SDS011;10524;48.132;8.518;2024-01-07T06:09:35;18.85;;;9.13;;
20725;SDS011;10524;48.132;8.518;2024-01-07T06:12:01;18.60;;;9.52;;
20725;SDS011;10524;48.132;8.518;2024-01-07T06:14:26;17.33;;;9.60;;
20725;SDS011;10524;48.132;8.518;2024-01-07T06:16:52;16.42;;;9.30;;
20725;SDS011;10524;48.132;8.518;2024-01-07T06:19:18;18.00;;;9.45;;
20725;SDS011;10524;48.132;8.518;2024-01-07T06:21:44;20.42;;;10.00;;
20725;SDS011;10524;48.132;8.518;2024-01-07T06:24:10;18.75;;;8.77;;
20725;SDS011;10524;48.132;8.518;2024-01-07T06:26:37;19.90;;;9.65;;
20725;SDS011;10524;48.132;8.518;2024-01-07T06:29:02;19.33;;;10.02;;
20725;SDS011;10524;48.132;8.518;2024-01-07T06:31:28;19.90;;;10.07;;
20725;SDS011;10524;48.132;8.518;2024-01-07T06:33:54;18.67;;;9.55;;
20725;SDS011;10524;48.132;8.518;2024-01-07T06:36:23;19.48;;;9.93;;
20725;SDS011;10524;48.132;8.518;2024-01-07T06:38:50;19.48;;;9.95;;
20725;SDS011;10524;48.132;8.518;2024-01-07T06:41:15;19.75;;;9.95;;
20725;SDS011;10524;48.132;8.518;2024-01-07T06:43:41;15.43;;;8.27;;
20725;SDS011;10524;48.132;8.518;2024-01-07T06:46:07;21.08;;;9.85;;
20725;SDS011;10524;48.132;8.518;2024-01-07T06:48:33;17.48;;;8.80;;
20725;SDS011;10524;48.132;8.518;2024-01-07T06:50:58;18.70;;;9.57;;
20725;SDS011;10524;48.132;8.518;2024-01-07T06:53:24;17.63;;;8.98;;
20725;SDS011;10524;48.132;8.518;2024-01-07T06:55:50;16.63;;;9.90;;
20725;SDS011;10524;48.132;8.518;2024-01-07T06:58:15;19.33;;;9.55;;
20725;SDS011;10524;48.132;8.518;2024-01-07T07:00:41;21.70;;;10.23;;
20725;SDS011;10524;48.132;8.518;2024-01-07T07:03:07;17.98;;;9.90;;
20725;SDS011;10524;48.132;8.518;2024-01-07T07:05:34;18.23;;;9.63;;
20725;SDS011;10524;48.132;8.518;2024-01-07T07:07:59;20.08;;;9.45;;
20725;SDS011;10524;48.132;8.518;2024-01-07T07:10:26;25.02;;;13.18;;
20725;SDS011;10524;48.132;8.518;2024-01-07T07:12:52;19.92;;;10.23;;
20725;SDS011;10524;48.132;8.518;2024-01-07T07:15:17;17.70;;;9.45;;
20725;SDS011;10524;48.132;8.518;2024-01-07T07:17:43;19.05;;;10.10;;
20725;SDS011;10524;48.132;8.518;2024-01-07T07:20:09;19.05;;;10.50;;
20725;SDS011;10524;48.132;8.518;2024-01-07T07:22:36;20.83;;;11.80;;
20725;SDS011;10524;48.132;8.518;2024-01-07T07:25:02;32.20;;;20.90;;
20725;SDS011;10524;48.132;8.518;2024-01-07T07:27:27;20.50;;;11.65;;
20725;SDS011;10524;48.132;8.518;2024-01-07T07:29:53;23.05;;;13.50;;
20725;SDS011;10524;48.132;8.518;2024-01-07T07:32:19;22.65;;;13.00;;
20725;SDS011;10524;48.132;8.518;2024-01-07T07:34:45;21.50;;;10.90;;
20725;SDS011;10524;48.132;8.518;2024-01-07T07:37:12;28.75;;;16.63;;
20725;SDS011;10524;48.132;8.518;2024-01-07T07:39:38;24.77;;;12.55;;
20725;SDS011;10524;48.132;8.518;2024-01-07T07:42:04;21.13;;;11.55;;
20725;SDS011;10524;48.132;8.518;2024-01-07T07:44:31;19.52;;;10.82;;
20725;SDS011;10524;48.132;8.518;2024-01-07T07:46:57;20.58;;;10.20;;
20725;SDS011;10524;48.132;8.518;2024-01-07T07:49:22;20.50;;;10.63;;
20725;SDS011;10524;48.132;8.518;2024-01-07T07:51:48;18.50;;;10.30;;
20725;SDS011;10524;48.132;8.518;2024-01-07T07:54:14;20.67;;;12.07;;
20725;SDS011;10524;48.132;8.518;2024-01-07T07:56:40;19.40;;;10.90;;
20725;SDS011;10524;48.132;8.518;2024-01-07T07:59:05;17.25;;;8.85;;
20725;SDS011;10524;48.132;8.518;2024-01-07T08:01:31;26.00;;;13.43;;
20725;SDS011;10524;48.132;8.518;2024-01-07T08:03:57;18.33;;;9.02;;
20725;SDS011;10524;48.132;8.518;2024-01-07T08:06:23;22.70;;;11.60;;
20725;SDS011;10524;48.132;8.518;2024-01-07T08:08:48;22.08;;;12.20;;
20725;SDS011;10524;48.132;8.518;2024-01-07T08:11:14;22.60;;;13.05;;
20725;SDS011;10524;48.132;8.518;2024-01-07T08:13:40;17.15;;;10.48;;
20725;SDS011;10524;48.132;8.518;2024-01-07T08:16:06;17.25;;;9.15;;
20725;SDS011;10524;48.132;8.518;2024-01-07T08:18:32;15.32;;;8.75;;
20725;SDS011;10524;48.132;8.518;2024-01-07T08:20:58;16.63;;;9.55;;
20725;SDS011;10524;48.132;8.518;2024-01-07T08:23:24;17.35;;;9.57;;
20725;SDS011;10524;48.132;8.518;2024-01-07T08:25:50;17.70;;;8.82;;
20725;SDS011;10524;48.132;8.518;2024-01-07T08:28:18;16.40;;;9.02;;
20725;SDS011;10524;48.132;8.518;2024-01-07T08:30:46;15.05;;;7.90;;
20725;SDS011;10524;48.132;8.518;2024-01-07T08:33:12;14.45;;;8.10;;
20725;SDS011;10524;48.132;8.518;2024-01-07T08:35:37;14.15;;;8.20;;
20725;SDS011;10524;48.132;8.518;2024-01-07T08:38:03;17.25;;;8.93;;
20725;SDS011;10524;48.132;8.518;2024-01-07T08:40:30;14.05;;;8.32;;
20725;SDS011;10524;48.132;8.518;2024-01-07T08:42:56;13.45;;;8.52;;
20725;SDS011;10524;48.132;8.518;2024-01-07T08:45:21;13.52;;;8.73;;
20725;SDS011;10524;48.132;8.518;2024-01-07T08:47:47;16.30;;;9.23;;
20725;SDS011;10524;48.132;8.518;2024-01-07T08:50:13;15.82;;;9.00;;
20725;SDS011;10524;48.132;8.518;2024-01-07T08:52:39;17.73;;;10.70;;
20725;SDS011;10524;48.132;8.518;2024-01-07T08:55:05;19.55;;;12.15;;
20725;SDS011;10524;48.132;8.518;2024-01-07T08:57:34;19.67;;;11.65;;
20725;SDS011;10524;48.132;8.518;2024-01-07T08:59:59;22.65;;;13.13;;
20725;SDS011;10524;48.132;8.518;2024-01-07T09:02:25;23.90;;;13.73;;
20725;SDS011;10524;48.132;8.518;2024-01-07T09:04:51;27.83;;;15.05;;
20725;SDS011;10524;48.132;8.518;2024-01-07T09:07:17;28.33;;;15.00;;
20725;SDS011;10524;48.132;8.518;2024-01-07T09:09:44;29.73;;;18.05;;
20725;SDS011;10524;48.132;8.518;2024-01-07T09:12:10;33.30;;;18.85;;
20725;SDS011;10524;48.132;8.518;2024-01-07T09:14:38;32.88;;;19.13;;
20725;SDS011;10524;48.132;8.518;2024-01-07T09:17:04;32.85;;;18.98;;
20725;SDS011;10524;48.132;8.518;2024-01-07T09:19:30;34.58;;;19.08;;
20725;SDS011;10524;48.132;8.518;2024-01-07T09:21:56;33.58;;;19.73;;
20725;SDS011;10524;48.132;8.518;2024-01-07T09:24:21;34.20;;;20.20;;
20725;SDS011;10524;48.132;8.518;2024-01-07T09:26:47;29.08;;;17.60;;
20725;SDS011;10524;48.132;8.518;2024-01-07T09:29:13;32.58;;;19.40;;
20725;SDS011;10524;48.132;8.518;2024-01-07T09:31:39;28.75;;;17.90;;
20725;SDS011;10524;48.132;8.518;2024-01-07T09:34:05;33.13;;;18.10;;
20725;SDS011;10524;48.132;8.518;2024-01-07T09:36:32;29.80;;;17.65;;
20725;SDS011;10524;48.132;8.518;2024-01-07T09:38:58;32.53;;;19.20;;
20725;SDS011;10524;48.132;8.518;2024-01-07T09:41:24;34.67;;;19.30;;
20725;SDS011;10524;48.132;8.518;2024-01-07T09:43:51;32.05;;;17.63;;
20725;SDS011;10524;48.132;8.518;2024-01-07T09:46:18;32.55;;;18.73;;
20725;SDS011;10524;48.132;8.518;2024-01-07T09:48:44;30.00;;;18.92;;
20725;SDS011;10524;48.132;8.518;2024-01-07T09:51:10;32.95;;;18.85;;
20725;SDS011;10524;48.132;8.518;2024-01-07T09:53:38;29.48;;;18.67;;
20725;SDS011;10524;48.132;8.518;2024-01-07T09:56:12;29.55;;;17.85;;
20725;SDS011;10524;48.132;8.518;2024-01-07T09:58:48;26.95;;;16.35;;
20725;SDS011;10524;48.132;8.518;2024-01-07T10:01:17;25.55;;;15.45;;
20725;SDS011;10524;48.132;8.518;2024-01-07T10:03:43;25.02;;;15.73;;
20725;SDS011;10524;48.132;8.518;2024-01-07T10:06:12;28.95;;;16.75;;
20725;SDS011;10524;48.132;8.518;2024-01-07T10:08:38;26.17;;;15.80;;
20725;SDS011;10524;48.132;8.518;2024-01-07T10:11:04;25.92;;;16.13;;
20725;SDS011;10524;48.132;8.518;2024-01-07T10:13:30;25.70;;;16.88;;
20725;SDS011;10524;48.132;8.518;2024-01-07T10:15:57;24.60;;;16.48;;
20725;SDS011;10524;48.132;8.518;2024-01-07T10:18:23;26.63;;;17.20;;
20725;SDS011;10524;48.132;8.518;2024-01-07T10:20:50;23.70;;;15.10;;
20725;SDS011;10524;48.132;8.518;2024-01-07T10:23:19;22.27;;;14.05;;
20725;SDS011;10524;48.132;8.518;2024-01-07T10:25:45;23.40;;;14.73;;
20725;SDS011;10524;48.132;8.518;2024-01-07T10:28:12;23.02;;;14.80;;
20725;SDS011;10524;48.132;8.518;2024-01-07T10:30:39;25.17;;;15.80;;
20725;SDS011;10524;48.132;8.518;2024-01-07T10:33:05;26.15;;;15.85;;
20725;SDS011;10524;48.132;8.518;2024-01-07T10:35:33;23.63;;;15.65;;
20725;SDS011;10524;48.132;8.518;2024-01-07T10:38:01;24.20;;;15.77;;
20725;SDS011;10524;48.132;8.518;2024-01-07T10:40:27;27.77;;;17.42;;
20725;SDS011;10524;48.132;8.518;2024-01-07T10:42:55;26.73;;;16.30;;
20725;SDS011;10524;48.132;8.518;2024-01-07T10:45:22;23.15;;;15.50;;
20725;SDS011;10524;48.132;8.518;2024-01-07T10:47:48;22.63;;;14.98;;
20725;SDS011;10524;48.132;8.518;2024-01-07T10:50:16;20.27;;;13.27;;
20725;SDS011;10524;48.132;8.518;2024-01-07T10:52:42;22.27;;;13.50;;
20725;SDS011;10524;48.132;8.518;2024-01-07T10:55:19;19.67;;;12.18;;
20725;SDS011;10524;48.132;8.518;2024-01-07T10:57:47;21.63;;;13.15;;
20725;SDS011;10524;48.132;8.518;2024-01-07T11:00:15;20.52;;;12.45;;
20725;SDS011;10524;48.132;8.518;2024-01-07T11:05:31;24.38;;;14.38;;
20725;SDS011;10524;48.132;8.518;2024-01-07T11:10:43;21.48;;;13.02;;
20725;SDS011;10524;48.132;8.518;2024-01-07T11:13:55;21.25;;;13.68;;
20725;SDS011;10524;48.132;8.518;2024-01-07T11:16:09;24.50;;;14.20;;
20725;SDS011;10524;48.132;8.518;2024-01-07T11:18:39;26.13;;;15.02;;
20725;SDS011;10524;48.132;8.518;2024-01-07T11:21:10;25.73;;;15.52;;
20725;SDS011;10524;48.132;8.518;2024-01-07T11:23:36;27.70;;;15.85;;
20725;SDS011;10524;48.132;8.518;2024-01-07T11:26:08;24.38;;;14.55;;
20725;SDS011;10524;48.132;8.518;2024-01-07T11:31:12;22.23;;;14.07;;
20725;SDS011;10524;48.132;8.518;2024-01-07T11:33:38;26.63;;;14.60;;
20725;SDS011;10524;48.132;8.518;2024-01-07T11:36:06;22.98;;;13.73;;
20725;SDS011;10524;48.132;8.518;2024-01-07T11:38:33;22.92;;;12.82;;
20725;SDS011;10524;48.132;8.518;2024-01-07T11:41:02;20.73;;;12.55;;
20725;SDS011;10524;48.132;8.518;2024-01-07T11:43:30;21.65;;;13.00;;
20725;SDS011;10524;48.132;8.518;2024-01-07T11:45:56;25.48;;;15.27;;
20725;SDS011;10524;48.132;8.518;2024-01-07T11:48:22;19.08;;;11.30;;
20725;SDS011;10524;48.132;8.518;2024-01-07T11:50:48;16.83;;;10.88;;
20725;SDS011;10524;48.132;8.518;2024-01-07T11:53:14;19.30;;;12.95;;
20725;SDS011;10524;48.132;8.518;2024-01-07T11:55:40;22.27;;;15.30;;
20725;SDS011;10524;48.132;8.518;2024-01-07T11:58:06;22.23;;;12.70;;
20725;SDS011;10524;48.132;8.518;2024-01-07T12:00:34;30.23;;;16.13;;
20725;SDS011;10524;48.132;8.518;2024-01-07T12:03:01;26.25;;;13.82;;
20725;SDS011;10524;48.132;8.518;2024-01-07T12:05:28;26.13;;;15.55;;
20725;SDS011;10524;48.132;8.518;2024-01-07T12:07:54;23.05;;;14.40;;
20725;SDS011;10524;48.132;8.518;2024-01-07T12:10:20;25.55;;;16.90;;
20725;SDS011;10524;48.132;8.518;2024-01-07T12:12:47;25.70;;;14.90;;
20725;SDS011;10524;48.132;8.518;2024-01-07T12:15:13;25.70;;;14.00;;
20725;SDS011;10524;48.132;8.518;2024-01-07T12:17:39;26.80;;;15.02;;
20725;SDS011;10524;48.132;8.518;2024-01-07T12:20:05;21.40;;;13.10;;
20725;SDS011;10524;48.132;8.518;2024-01-07T12:22:37;23.98;;;13.60;;
20725;SDS011;10524;48.132;8.518;2024-01-07T12:25:04;21.98;;;12.35;;
20725;SDS011;10524;48.132;8.518;2024-01-07T12:27:31;23.98;;;14.43;;
20725;SDS011;10524;48.132;8.518;2024-01-07T12:29:57;25.95;;;14.77;;
20725;SDS011;10524;48.132;8.518;2024-01-07T12:32:27;22.63;;;13.40;;
20725;SDS011;10524;48.132;8.518;2024-01-07T12:34:59;23.83;;;13.65;;
20725;SDS011;10524;48.132;8.518;2024-01-07T12:37:28;28.42;;;15.88;;
20725;SDS011;10524;48.132;8.518;2024-01-07T12:39:54;25.27;;;14.63;;
20725;SDS011;10524;48.132;8.518;2024-01-07T12:42:20;29.15;;;16.17;;
20725;SDS011;10524;48.132;8.518;2024-01-07T12:44:47;27.98;;;16.52;;
20725;SDS011;10524;48.132;8.518;2024-01-07T12:47:14;26.10;;;15.18;;
20725;SDS011;10524;48.132;8.518;2024-01-07T12:49:40;28.45;;;16.13;;
20725;SDS011;10524;48.132;8.518;2024-01-07T12:52:05;32.17;;;17.17;;
20725;SDS011;10524;48.132;8.518;2024-01-07T12:54:31;24.90;;;15.00;;
20725;SDS011;10524;48.132;8.518;2024-01-07T12:56:57;30.80;;;17.48;;
20725;SDS011;10524;48.132;8.518;2024-01-07T12:59:23;29.15;;;17.33;;
20725;SDS011;10524;48.132;8.518;2024-01-07T13:01:48;23.92;;;13.98;;
20725;SDS011;10524;48.132;8.518;2024-01-07T13:04:16;21.92;;;13.90;;
20725;SDS011;10524;48.132;8.518;2024-01-07T13:06:42;22.27;;;15.50;;
20725;SDS011;10524;48.132;8.518;2024-01-07T13:09:07;21.90;;;14.60;;
20725;SDS011;10524;48.132;8.518;2024-01-07T13:11:34;19.77;;;13.05;;
20725;SDS011;10524;48.132;8.518;2024-01-07T13:14:00;18.90;;;12.32;;
20725;SDS011;10524;48.132;8.518;2024-01-07T13:16:27;20.55;;;14.43;;
20725;SDS011;10524;48.132;8.518;2024-01-07T13:18:53;20.92;;;13.13;;
20725;SDS011;10524;48.132;8.518;2024-01-07T13:21:20;16.70;;;11.13;;
20725;SDS011;10524;48.132;8.518;2024-01-07T13:23:46;17.23;;;12.63;;
20725;SDS011;10524;48.132;8.518;2024-01-07T13:26:13;18.58;;;12.68;;
20725;SDS011;10524;48.132;8.518;2024-01-07T13:28:39;20.90;;;13.38;;
20725;SDS011;10524;48.132;8.518;2024-01-07T13:31:06;20.00;;;13.85;;
20725;SDS011;10524;48.132;8.518;2024-01-07T13:33:32;17.75;;;12.10;;
20725;SDS011;10524;48.132;8.518;2024-01-07T13:35:58;15.63;;;11.50;;
20725;SDS011;10524;48.132;8.518;2024-01-07T13:38:24;15.50;;;10.90;;
20725;SDS011;10524;48.132;8.518;2024-01-07T13:40:50;14.05;;;10.75;;
20725;SDS011;10524;48.132;8.518;2024-01-07T13:43:16;14.35;;;10.80;;
20725;SDS011;10524;48.132;8.518;2024-01-07T13:45:42;21.65;;;13.13;;
20725;SDS011;10524;48.132;8.518;2024-01-07T13:48:08;12.50;;;8.90;;
20725;SDS011;10524;48.132;8.518;2024-01-07T13:50:34;12.90;;;8.95;;
20725;SDS011;10524;48.132;8.518;2024-01-07T13:53:01;13.63;;;9.45;;
20725;SDS011;10524;48.132;8.518;2024-01-07T13:55:27;12.43;;;9.48;;
20725;SDS011;10524;48.132;8.518;2024-01-07T13:57:53;12.98;;;9.15;;
20725;SDS011;10524;48.132;8.518;2024-01-07T14:00:19;12.98;;;9.10;;
20725;SDS011;10524;48.132;8.518;2024-01-07T14:02:45;13.82;;;10.38;;
20725;SDS011;10524;48.132;8.518;2024-01-07T14:05:11;14.52;;;10.40;;
20725;SDS011;10524;48.132;8.518;2024-01-07T14:07:37;17.38;;;12.00;;
20725;SDS011;10524;48.132;8.518;2024-01-07T14:10:04;18.60;;;12.05;;
20725;SDS011;10524;48.132;8.518;2024-01-07T14:12:31;15.32;;;11.23;;
20725;SDS011;10524;48.132;8.518;2024-01-07T14:14:57;15.05;;;11.27;;
20725;SDS011;10524;48.132;8.518;2024-01-07T14:17:24;14.27;;;11.35;;
20725;SDS011;10524;48.132;8.518;2024-01-07T14:19:50;17.67;;;12.10;;
20725;SDS011;10524;48.132;8.518;2024-01-07T14:22:21;14.68;;;10.77;;
20725;SDS011;10524;48.132;8.518;2024-01-07T14:24:47;15.07;;;11.48;;
20725;SDS011;10524;48.132;8.518;2024-01-07T14:27:14;17.85;;;13.13;;
20725;SDS011;10524;48.132;8.518;2024-01-07T14:29:40;15.52;;;11.60;;